Time;durP1;ratioP1;P1;durP2;ratioP2;P2;SDS_P1;SDS_P2;PMS_P1;PMS_P2;Temp;Humidity;BMP_temperature;BMP_pressure;BME280_temperature;BME280_humidity;BME280_pressure;Samples;Min_cycle;Max_cycle;Signal;HPM_P1;HPM_P2
2023/12/16 00:01:08;;;;;;;29.08;9.45;;;;;;;-145.63;51.60;38949.94;5065772;28;20079;-60
2023/12/16 00:03:34;;;;;;;25.02;8.30;;;;;;;-145.63;51.50;38969.50;5065654;28;20029;-61
2023/12/16 00:06:00;;;;;;;24.35;8.90;;;;;;;-145.63;51.04;38953.84;5064748;28;20302;-63
2023/12/16 00:08:25;;;;;;;24.52;8.68;;;;;;;-145.63;51.66;39043.81;5054118;28;20064;-63
2023/12/16 00:10:51;;;;;;;22.45;8.00;;;;;;;-145.63;51.68;38942.13;5052251;28;20057;-61
2023/12/16 00:13:17;;;;;;;24.58;8.25;;;;;;;-145.63;51.77;38991.00;5065577;28;20247;-60
2023/12/16 00:15:43;;;;;;;24.70;8.20;;;;;;;-145.63;51.66;38963.63;5065419;28;20095;-60
2023/12/16 00:18:08;;;;;;;26.52;8.70;;;;;;;-145.63;51.52;38977.31;5048359;28;20036;-61
2023/12/16 00:20:34;;;;;;;28.67;8.88;;;;;;;-145.63;51.77;38959.72;5057671;28;20060;-62
2023/12/16 00:23:00;;;;;;;18.45;7.13;;;;;;;-145.63;51.14;38955.81;5057684;28;20025;-61
2023/12/16 00:25:26;;;;;;;24.38;7.95;;;;;;;-145.63;50.76;38969.50;5048197;28;20253;-61
2023/12/16 00:27:52;;;;;;;25.63;7.40;;;;;;;-145.63;51.40;38961.66;5065448;28;20025;-61
2023/12/16 00:30:18;;;;;;;21.48;7.47;;;;;;;-145.63;51.40;38967.53;5046879;28;20040;-62
2023/12/16 00:32:44;;;;;;;20.73;7.82;;;;;;;-145.63;51.30;38934.28;5057563;28;20048;-60
2023/12/16 00:35:09;;;;;;;30.90;8.30;;;;;;;-145.63;51.14;38938.19;5055161;28;20042;-61
2023/12/16 00:37:35;;;;;;;24.75;8.38;;;;;;;-145.63;51.23;38977.31;5048039;28;20032;-62
2023/12/16 00:40:02;;;;;;;24.25;8.57;;;;;;;-145.63;51.39;38951.88;5063739;28;20221;-61
2023/12/16 00:42:31;;;;;;;19.83;7.88;;;;;;;-145.63;51.61;38961.66;5044960;28;20025;-61
2023/12/16 00:44:57;;;;;;;23.15;7.70;;;;;;;-145.63;51.79;38781.75;5060136;28;20041;-62
2023/12/16 00:47:23;;;;;;;22.08;8.25;;;;;;;-145.63;51.20;38957.75;5064860;28;20020;-61
2023/12/16 00:49:49;;;;;;;16.65;7.05;;;;;;;-145.63;51.38;38985.13;5064693;28;20024;-61
2023/12/16 00:52:15;;;;;;;19.60;7.70;;;;;;;-145.63;51.56;38975.34;5063434;28;20205;-61
2023/12/16 00:54:41;;;;;;;17.85;7.03;;;;;;;-145.63;51.44;38969.50;5044660;28;20048;-62
2023/12/16 00:57:07;;;;;;;23.17;6.97;;;;;;;-145.63;51.30;38940.16;5060319;28;20055;-63
2023/12/16 00:59:33;;;;;;;21.92;7.40;;;;;;;-145.63;51.00;38983.19;5035007;28;20026;-64
2023/12/16 01:01:59;;;;;;;21.70;7.88;;;;;;;-145.63;51.11;38977.31;5033982;28;20086;-61
2023/12/16 01:04:25;;;;;;;29.23;10.70;;;;;;;-145.63;51.75;38998.81;5064189;28;20024;-60
2023/12/16 01:06:51;;;;;;;18.90;7.10;;;;;;;-145.63;50.92;38989.03;5064638;28;20189;-61
2023/12/16 01:09:17;;;;;;;20.98;7.10;;;;;;;-145.63;50.86;38983.19;5063412;28;20040;-61
2023/12/16 01:11:42;;;;;;;18.65;6.85;;;;;;;-145.63;51.18;38676.16;5051150;28;20044;-62
2023/12/16 01:14:09;;;;;;;15.50;6.25;;;;;;;-145.63;51.12;38969.50;5052889;28;20091;-61
2023/12/16 01:16:34;;;;;;;17.70;6.90;;;;;;;-145.63;51.06;38957.75;5060388;28;20021;-60
2023/12/16 01:19:00;;;;;;;19.00;7.53;;;;;;;-145.63;51.12;38987.09;5044519;28;20104;-61
2023/12/16 01:21:26;;;;;;;17.83;7.15;;;;;;;-145.63;51.43;38723.09;5063216;28;20059;-61
2023/12/16 01:23:52;;;;;;;21.00;7.10;;;;;;;-145.63;50.70;38969.50;5049847;28;20131;-61
2023/12/16 01:26:17;;;;;;;20.98;7.20;;;;;;;-145.63;50.72;38987.09;5053673;28;20218;-60
2023/12/16 01:28:43;;;;;;;17.55;6.65;;;;;;;-145.63;50.49;38955.81;5059268;28;20366;-62
2023/12/16 01:31:09;;;;;;;17.25;7.78;;;;;;;-145.63;50.95;38938.19;5044126;28;20025;-61
2023/12/16 01:33:35;;;;;;;16.38;7.05;;;;;;;-145.63;51.53;38987.09;5063998;28;20025;-61
2023/12/16 01:36:00;;;;;;;21.88;7.15;;;;;;;-145.63;51.52;38953.84;5048873;28;20045;-60
2023/12/16 01:38:26;;;;;;;16.92;7.82;;;;;;;-145.63;51.62;38891.28;5053132;28;20045;-61
2023/12/16 01:40:52;;;;;;;18.75;7.50;;;;;;;-145.63;50.88;38998.81;5057942;28;20429;-61
2023/12/16 01:43:18;;;;;;;18.58;7.05;;;;;;;-145.63;51.50;38957.75;5045112;28;20092;-61
2023/12/16 01:45:44;;;;;;;23.42;7.95;;;;;;;-145.63;50.98;38991.00;5063806;28;20020;-61
2023/12/16 01:48:12;;;;;;;25.75;8.10;;;;;;;-145.63;51.72;38989.03;5079175;28;20054;-61
2023/12/16 01:50:38;;;;;;;22.73;6.75;;;;;;;-145.63;51.10;38701.59;5045727;28;20198;-60
2023/12/16 01:53:05;;;;;;;20.67;6.72;;;;;;;-145.63;51.25;39002.72;5055089;28;20022;-61
2023/12/16 01:55:32;;;;;;;17.80;7.43;;;;;;;-145.63;50.90;38762.22;5046165;28;20033;-61
2023/12/16 01:57:59;;;;;;;21.60;7.00;;;;;;;-145.63;51.08;38944.06;5063688;28;20035;-61
2023/12/16 02:00:28;;;;;;;22.83;7.07;;;;;;;-145.63;51.31;38971.44;5045372;28;20025;-60
2023/12/16 02:02:54;;;;;;;23.77;7.55;;;;;;;-145.63;51.54;38991.00;5057801;28;20126;-61
2023/12/16 02:05:20;;;;;;;17.27;6.85;;;;;;;-145.63;50.70;39000.78;5063894;28;20029;-60
2023/12/16 02:07:46;;;;;;;17.73;6.60;;;;;;;-145.63;51.85;38762.22;5063341;28;20096;-61
2023/12/16 02:10:12;;;;;;;20.60;7.00;;;;;;;-145.63;51.56;38961.66;5063702;28;20021;-62
2023/12/16 02:12:38;;;;;;;25.33;7.85;;;;;;;-145.63;51.64;39008.59;5043241;28;20021;-61
2023/12/16 02:15:05;;;;;;;22.02;6.63;;;;;;;-145.63;51.81;38946.03;5057852;28;20027;-62
2023/12/16 02:17:38;;;;;;;22.92;6.75;;;;;;;-145.63;51.96;38969.50;5051457;28;20017;-60
2023/12/16 02:20:24;;;;;;;17.38;6.97;;;;;;;-145.63;51.43;38973.41;5052071;28;20237;-62
2023/12/16 02:22:50;;;;;;;21.10;6.85;;;;;;;-145.63;50.91;38785.66;5057835;28;20067;-61
2023/12/16 02:25:17;;;;;;;15.90;6.15;;;;;;;-145.63;51.43;39022.28;5043794;28;20033;-61
2023/12/16 02:27:45;;;;;;;18.08;6.32;;;;;;;-145.63;51.04;38973.41;5063093;28;20029;-61
2023/12/16 02:30:12;;;;;;;14.23;6.07;;;;;;;-145.63;51.10;38965.56;5046609;28;20187;-61
2023/12/16 02:32:41;;;;;;;16.27;6.70;;;;;;;-145.63;51.33;38951.88;5054542;28;20241;-61
2023/12/16 02:35:07;;;;;;;23.05;6.47;;;;;;;-145.63;51.77;38969.50;5055680;28;20053;-62
2023/12/16 02:37:33;;;;;;;22.38;6.90;;;;;;;-145.63;51.09;38967.53;5045258;28;20341;-61
2023/12/16 02:39:59;;;;;;;19.92;6.25;;;;;;;-145.63;51.46;38977.31;5063214;28;20032;-61
2023/12/16 02:42:24;;;;;;;20.52;7.35;;;;;;;-145.63;51.46;38983.19;5044679;28;20202;-61
2023/12/16 02:44:50;;;;;;;16.27;6.55;;;;;;;-145.63;51.49;38944.06;5056022;28;20032;-61
2023/12/16 02:47:16;;;;;;;18.13;7.30;;;;;;;-145.63;51.18;39006.66;5062745;28;20031;-60
2023/12/16 02:49:42;;;;;;;18.63;7.05;;;;;;;-145.63;51.20;39006.66;5062478;28;20070;-61
2023/12/16 02:52:07;;;;;;;17.92;6.43;;;;;;;-145.63;51.36;39024.25;5062776;28;20317;-60
2023/12/16 02:54:33;;;;;;;15.77;6.80;;;;;;;-145.63;51.37;38996.88;5042229;28;20033;-61
2023/12/16 02:56:59;;;;;;;17.27;6.47;;;;;;;-145.63;51.92;39000.78;5056809;28;20048;-61
2023/12/16 02:59:25;;;;;;;19.40;7.28;;;;;;;-145.63;52.33;38996.88;5062075;28;20348;-61
2023/12/16 03:01:50;;;;;;;20.05;7.32;;;;;;;-145.63;51.36;38985.13;5057594;28;20029;-61
2023/12/16 03:04:16;;;;;;;21.38;7.07;;;;;;;-145.63;51.92;38961.66;5043584;28;20039;-61
2023/12/16 03:06:43;;;;;;;23.77;7.88;;;;;;;-145.63;52.49;38979.28;5062401;28;20084;-61
2023/12/16 03:09:09;;;;;;;21.58;7.45;;;;;;;-145.63;53.00;38987.09;5046757;28;20198;-62
2023/12/16 03:11:35;;;;;;;19.50;6.53;;;;;;;-145.63;53.25;38989.03;5052086;28;20039;-61
2023/12/16 03:14:01;;;;;;;23.38;7.70;;;;;;;-145.63;53.34;39008.59;5062439;28;20221;-60
2023/12/16 03:16:26;;;;;;;15.07;6.68;;;;;;;-145.63;52.94;38983.19;5060832;28;20088;-62
2023/12/16 03:18:52;;;;;;;16.00;6.90;;;;;;;-145.63;54.07;38985.13;5042421;28;20517;-61
2023/12/16 03:21:18;;;;;;;22.52;7.40;;;;;;;-145.63;54.41;38992.97;5059275;28;20035;-61
2023/12/16 03:23:43;;;;;;;19.13;7.70;;;;;;;-145.63;53.89;38703.53;5050236;28;20226;-61
2023/12/16 03:26:10;;;;;;;19.17;7.57;;;;;;;-145.63;54.49;38996.88;5049781;28;20029;-62
2023/12/16 03:28:35;;;;;;;20.52;8.23;;;;;;;-145.63;54.74;38981.22;5059626;28;20056;-62
2023/12/16 03:31:01;;;;;;;15.55;8.02;;;;;;;-145.63;54.21;39002.72;5042499;28;20194;-61
2023/12/16 03:33:27;;;;;;;20.00;9.77;;;;;;;-145.63;54.47;38977.31;5060116;28;20070;-61
2023/12/16 03:35:52;;;;;;;17.63;7.13;;;;;;;-145.63;54.64;39000.78;5049376;28;20050;-60
2023/12/16 03:38:18;;;;;;;19.10;8.30;;;;;;;-145.63;54.64;38983.19;5050846;28;20029;-60
2023/12/16 03:40:44;;;;;;;19.38;8.20;;;;;;;-145.63;54.68;38992.97;5058432;28;20343;-61
2023/12/16 03:43:09;;;;;;;22.05;8.90;;;;;;;-145.63;54.23;38998.81;5051262;28;20024;-61
2023/12/16 03:45:35;;;;;;;18.25;8.20;;;;;;;-145.63;53.94;38967.53;5062168;28;20075;-61
2023/12/16 03:48:01;;;;;;;24.30;9.27;;;;;;;-145.63;54.49;38967.53;5062207;28;20245;-60
2023/12/16 03:50:26;;;;;;;20.05;8.60;;;;;;;-145.63;53.86;38779.81;5061951;28;20055;-60
2023/12/16 03:52:52;;;;;;;24.92;11.05;;;;;;;-145.63;54.40;39037.94;5057519;28;20021;-61
2023/12/16 03:55:18;;;;;;;16.27;8.30;;;;;;;-145.63;53.57;39000.78;5042318;28;20037;-60
2023/12/16 03:57:44;;;;;;;20.00;8.75;;;;;;;-145.63;53.84;39012.50;5042245;28;20022;-60
2023/12/16 04:00:11;;;;;;;17.20;8.25;;;;;;;-145.63;53.39;39026.19;5057489;28;20100;-61
2023/12/16 04:02:36;;;;;;;23.33;9.52;;;;;;;-145.63;54.49;38955.81;5051083;28;20381;-61
2023/12/16 04:05:02;;;;;;;25.80;9.60;;;;;;;-145.63;53.80;38991.00;5049128;28;20025;-60
2023/12/16 04:07:29;;;;;;;19.70;8.13;;;;;;;-145.63;53.83;39012.50;5063441;28;20013;-59
2023/12/16 04:09:55;;;;;;;23.75;9.18;;;;;;;-145.63;54.34;38961.66;5082027;28;20063;-62
2023/12/16 04:12:21;;;;;;;22.17;9.45;;;;;;;-145.63;54.76;39010.56;5067201;28;20063;-63
2023/12/16 04:14:46;;;;;;;20.77;8.73;;;;;;;-145.63;53.84;38873.66;5052336;28;20029;-62
2023/12/16 04:17:12;;;;;;;20.70;8.77;;;;;;;-145.63;53.38;39008.59;5052613;28;20025;-62
2023/12/16 04:19:38;;;;;;;23.40;9.35;;;;;;;-145.63;53.59;39020.34;5067799;28;20029;-62
2023/12/16 04:22:04;;;;;;;26.85;10.00;;;;;;;-145.63;54.36;39018.38;5085635;28;20426;-62
2023/12/16 04:24:30;;;;;;;22.02;9.02;;;;;;;-145.63;54.19;38996.88;5067290;28;20320;-62
2023/12/16 04:26:56;;;;;;;19.65;9.00;;;;;;;-145.63;54.36;39018.38;5052466;28;20029;-61
2023/12/16 04:29:21;;;;;;;22.48;9.38;;;;;;;-145.63;54.31;39008.59;5053766;28;20085;-61
2023/12/16 04:31:47;;;;;;;25.90;9.15;;;;;;;-145.63;54.05;39026.19;5061438;28;20443;-61
2023/12/16 04:34:13;;;;;;;21.52;8.88;;;;;;;-145.63;54.49;39039.88;5045248;28;20052;-61
2023/12/16 04:36:39;;;;;;;20.10;9.82;;;;;;;-145.63;54.08;39041.84;5063868;28;20070;-61
2023/12/16 04:39:07;;;;;;;25.50;10.02;;;;;;;-145.63;55.01;39039.88;5050894;28;20029;-61
2023/12/16 04:41:34;;;;;;;23.38;10.68;;;;;;;-145.63;54.28;39028.16;5055135;28;20067;-61
2023/12/16 04:43:59;;;;;;;22.58;9.85;;;;;;;-145.63;55.31;38992.97;5065270;28;20059;-61
2023/12/16 04:46:25;;;;;;;19.48;10.40;;;;;;;-145.63;55.40;39028.16;5065042;28;20021;-61
2023/12/16 04:48:51;;;;;;;19.02;9.55;;;;;;;-145.63;54.61;39016.44;5064854;28;20029;-61
2023/12/16 04:51:17;;;;;;;20.73;10.35;;;;;;;-145.63;55.49;39028.16;5064841;28;20094;-61
2023/12/16 04:53:43;;;;;;;24.95;11.07;;;;;;;-145.63;55.86;39014.47;5053319;28;20026;-61
2023/12/16 04:56:09;;;;;;;24.63;10.45;;;;;;;-145.63;55.58;39012.50;5051361;28;20164;-60
2023/12/16 04:58:34;;;;;;;27.13;11.27;;;;;;;-145.63;55.20;39032.06;5063032;28;20021;-61
2023/12/16 05:01:00;;;;;;;23.85;10.95;;;;;;;-145.63;55.41;39053.59;5044787;28;20045;-60
2023/12/16 05:03:26;;;;;;;27.25;11.65;;;;;;;-145.63;56.19;38756.34;5061896;28;20103;-61
2023/12/16 05:05:52;;;;;;;22.17;11.23;;;;;;;-145.63;55.34;38586.22;5063126;28;20240;-61
2023/12/16 05:08:19;;;;;;;21.85;10.80;;;;;;;-145.63;56.43;39065.31;5057172;28;20093;-60
2023/12/16 05:10:47;;;;;;;22.30;11.65;;;;;;;-145.63;56.16;39028.16;5047328;28;20293;-61
2023/12/16 05:13:14;;;;;;;23.40;11.70;;;;;;;-145.63;56.17;39026.19;5064575;28;20029;-61
2023/12/16 05:15:41;;;;;;;27.73;11.60;;;;;;;-145.63;56.29;38674.22;5064186;28;20074;-60
2023/12/16 05:18:08;;;;;;;23.13;12.07;;;;;;;-145.63;56.43;39063.34;5049994;28;20021;-60
2023/12/16 05:20:37;;;;;;;22.88;12.45;;;;;;;-145.63;55.82;39045.75;5053716;28;20025;-60
2023/12/16 05:23:03;;;;;;;28.02;12.73;;;;;;;-145.63;55.24;39049.66;5058938;28;20093;-60
2023/12/16 05:25:29;;;;;;;25.70;12.05;;;;;;;-145.63;55.92;39041.84;5044749;28;20029;-60
2023/12/16 05:27:56;;;;;;;28.13;13.52;;;;;;;-145.63;55.68;39088.78;5064364;28;20017;-61
2023/12/16 05:30:21;;;;;;;21.50;12.40;;;;;;;-145.63;56.24;39037.94;5048287;28;20026;-62
2023/12/16 05:32:48;;;;;;;27.35;13.48;;;;;;;-145.63;57.24;39039.88;5055185;28;20031;-61
2023/12/16 05:35:13;;;;;;;30.75;14.45;;;;;;;-145.63;57.09;39020.34;5057157;28;20045;-61
2023/12/16 05:37:40;;;;;;;28.65;14.48;;;;;;;-145.63;56.76;39129.84;5045646;28;20033;-60
2023/12/16 05:40:06;;;;;;;28.98;14.25;;;;;;;-145.63;57.03;39037.94;5063868;28;20021;-62
2023/12/16 05:42:32;;;;;;;28.35;14.70;;;;;;;-145.63;57.37;39047.72;5046444;28;20021;-61
2023/12/16 05:44:57;;;;;;;30.33;14.00;;;;;;;-145.63;57.47;39032.06;5056299;28;20031;-62
2023/12/16 05:47:23;;;;;;;30.70;15.15;;;;;;;-145.63;56.49;39037.94;5063809;28;20037;-61
2023/12/16 05:49:49;;;;;;;31.70;15.25;;;;;;;-145.63;57.12;39041.84;5063385;28;20063;-62
2023/12/16 05:52:14;;;;;;;30.48;14.57;;;;;;;-145.63;57.24;39043.81;5063751;28;20028;-61
2023/12/16 05:54:40;;;;;;;33.38;16.05;;;;;;;-145.63;57.20;39075.09;5045123;28;20032;-62
2023/12/16 05:57:06;;;;;;;32.58;15.00;;;;;;;-145.63;57.15;39055.53;5057357;28;20020;-62
2023/12/16 05:59:31;;;;;;;30.30;14.50;;;;;;;-145.63;57.16;39057.50;5054538;28;20056;-65
2023/12/16 06:01:57;;;;;;;30.75;15.50;;;;;;;-145.63;56.63;39039.88;5055614;28;20025;-64
2023/12/16 06:04:23;;;;;;;26.58;14.48;;;;;;;-145.63;57.30;39008.59;5062056;28;20063;-67
2023/12/16 06:06:48;;;;;;;27.20;14.85;;;;;;;-145.63;56.86;38938.19;5062832;28;20025;-64
2023/12/16 06:09:14;;;;;;;33.75;15.55;;;;;;;-145.63;56.56;39049.66;5063067;28;20334;-64
2023/12/16 06:11:40;;;;;;;33.30;14.20;;;;;;;-145.63;57.58;39071.19;5061440;28;20306;-65
2023/12/16 06:14:06;;;;;;;34.28;14.20;;;;;;;-145.63;57.36;39090.75;5061697;28;20025;-64
2023/12/16 06:16:32;;;;;;;31.50;15.23;;;;;;;-145.63;56.99;39080.97;5062007;28;20084;-65
2023/12/16 06:18:58;;;;;;;29.13;13.63;;;;;;;-145.63;56.41;39086.81;5062232;28;20024;-67
2023/12/16 06:21:23;;;;;;;32.08;14.68;;;;;;;-145.63;56.00;39071.19;5061688;28;20028;-64
2023/12/16 06:23:49;;;;;;;31.02;14.55;;;;;;;-145.63;56.15;39051.63;5061501;28;20394;-64
2023/12/16 06:26:15;;;;;;;32.90;14.68;;;;;;;-145.63;57.34;39051.63;5061628;28;20017;-63
2023/12/16 06:28:40;;;;;;;29.90;14.50;;;;;;;-145.63;56.88;39063.34;5061467;28;20217;-64
2023/12/16 06:31:13;;;;;;;29.55;15.13;;;;;;;-145.63;56.47;39055.53;5062784;28;20028;-65
2023/12/16 06:33:39;;;;;;;34.22;15.15;;;;;;;-145.63;57.11;39028.16;5061142;28;20028;-66
2023/12/16 06:36:05;;;;;;;30.75;15.25;;;;;;;-145.63;56.49;39026.19;5060912;28;20357;-65
2023/12/16 06:38:31;;;;;;;31.13;14.73;;;;;;;-145.63;57.26;39035.97;5061429;28;20096;-64
2023/12/16 06:40:57;;;;;;;34.35;15.55;;;;;;;-145.63;56.38;39026.19;5061461;28;20028;-65
2023/12/16 06:43:22;;;;;;;26.92;14.68;;;;;;;-145.63;56.31;39028.16;5077998;28;20112;-65
2023/12/16 06:45:48;;;;;;;29.92;15.05;;;;;;;-145.63;56.00;39039.88;5062124;28;20227;-64
2023/12/16 06:48:14;;;;;;;29.85;13.55;;;;;;;-145.63;56.82;39000.78;5048556;28;20064;-64
2023/12/16 06:50:40;;;;;;;31.35;15.52;;;;;;;-145.63;55.87;39026.19;5051201;28;20028;-65
2023/12/16 06:53:06;;;;;;;29.67;14.75;;;;;;;-145.63;55.68;39010.56;5047636;28;20033;-64
2023/12/16 06:55:32;;;;;;;30.25;14.18;;;;;;;-145.63;55.84;39051.63;5062480;28;20025;-65
2023/12/16 06:57:58;;;;;;;30.33;14.40;;;;;;;-145.63;56.61;38998.81;5062570;28;20262;-64
2023/12/16 07:00:24;;;;;;;32.63;14.38;;;;;;;-145.63;55.89;39028.16;5046870;28;20052;-64
2023/12/16 07:02:49;;;;;;;29.08;14.35;;;;;;;-145.63;56.24;39028.16;5053205;28;20040;-63
2023/12/16 07:05:15;;;;;;;28.13;13.93;;;;;;;-145.63;56.63;39037.94;5062390;28;20089;-63
2023/12/16 07:07:43;;;;;;;29.80;14.40;;;;;;;-145.63;55.83;39030.13;5060887;28;20025;-63
2023/12/16 07:10:09;;;;;;;21.88;12.70;;;;;;;-145.63;56.18;39028.16;5042501;28;20029;-63
2023/12/16 07:12:34;;;;;;;25.55;14.07;;;;;;;-145.63;55.40;39016.44;5059174;28;20310;-64
2023/12/16 07:15:00;;;;;;;27.40;13.80;;;;;;;-145.63;56.00;39030.13;5062307;28;20100;-65
2023/12/16 07:17:26;;;;;;;30.25;14.30;;;;;;;-145.63;56.05;39035.97;5054791;28;20029;-65
2023/12/16 07:19:52;;;;;;;24.95;13.63;;;;;;;-145.63;56.36;39018.38;5046683;28;20096;-64
2023/12/16 07:22:17;;;;;;;31.05;14.68;;;;;;;-145.63;55.73;39028.16;5082515;28;20099;-65
2023/12/16 07:24:43;;;;;;;28.38;14.98;;;;;;;-145.63;56.20;39043.81;5064342;28;20071;-67
2023/12/16 07:27:09;;;;;;;29.65;14.88;;;;;;;-145.63;55.61;39026.19;5049183;28;20198;-66
2023/12/16 07:29:35;;;;;;;27.98;14.35;;;;;;;-145.63;55.88;39014.47;5050916;28;20036;-64
2023/12/16 07:32:01;;;;;;;33.22;14.82;;;;;;;-145.63;55.12;39032.06;5058415;28;20029;-65
2023/12/16 07:34:27;;;;;;;27.20;14.82;;;;;;;-145.63;55.25;39018.38;5042135;28;20095;-64
2023/12/16 07:36:53;;;;;;;32.63;14.90;;;;;;;-145.63;55.25;39032.06;5061220;28;20036;-67
2023/12/16 07:39:19;;;;;;;30.38;14.80;;;;;;;-145.63;55.25;39028.16;5047566;28;20044;-64
2023/12/16 07:41:46;;;;;;;27.52;14.00;;;;;;;-145.63;55.38;38991.00;5054267;28;20369;-64
2023/12/16 07:44:12;;;;;;;23.95;13.73;;;;;;;-145.63;55.31;39045.75;5060163;28;20139;-64
2023/12/16 07:46:40;;;;;;;27.77;14.63;;;;;;;-145.63;55.30;39118.13;5063870;28;20029;-65
2023/12/16 07:49:06;;;;;;;25.50;14.13;;;;;;;-145.63;55.68;39061.41;5066370;28;20028;-63
2023/12/16 07:51:32;;;;;;;29.73;15.07;;;;;;;-145.63;55.48;39041.84;5065703;28;20036;-64
2023/12/16 07:53:57;;;;;;;28.58;13.65;;;;;;;-145.63;55.51;39043.81;5058199;28;20198;-63
2023/12/16 07:56:26;;;;;;;30.80;14.23;;;;;;;-145.63;55.30;39073.13;5065005;28;20244;-64
2023/12/16 07:58:52;;;;;;;26.40;14.98;;;;;;;-145.63;56.34;39065.31;5064868;28;20017;-64
2023/12/16 08:01:18;;;;;;;30.98;15.07;;;;;;;-145.63;56.88;39057.50;5065420;28;20033;-64
2023/12/16 08:03:45;;;;;;;32.95;15.90;;;;;;;-145.63;56.55;39063.34;5064520;28;20075;-65
2023/12/16 08:06:14;;;;;;;28.20;14.93;;;;;;;-145.63;55.18;39065.31;5065414;28;20052;-64
2023/12/16 08:08:41;;;;;;;31.42;15.10;;;;;;;-145.63;55.42;39067.28;5011072;28;20033;-64
2023/12/16 08:11:08;;;;;;;27.83;13.85;;;;;;;-145.63;56.36;39084.88;5049451;28;20106;-64
2023/12/16 08:13:35;;;;;;;29.27;14.98;;;;;;;-145.63;55.91;39100.50;5065084;28;20072;-63
2023/12/16 08:16:01;;;;;;;31.83;16.40;;;;;;;-145.63;56.14;39039.88;5065191;28;20032;-64
2023/12/16 08:18:28;;;;;;;25.83;14.18;;;;;;;-145.63;56.07;39067.28;5065234;28;20048;-64
2023/12/16 08:20:54;;;;;;;24.92;14.30;;;;;;;-145.63;56.56;39045.75;5054567;28;20026;-65
2023/12/16 08:23:20;;;;;;;25.92;15.20;;;;;;;-145.63;55.38;39043.81;5051356;28;20025;-64
2023/12/16 08:25:47;;;;;;;29.15;17.17;;;;;;;-145.63;55.94;39094.66;5063668;28;20053;-65
2023/12/16 08:28:13;;;;;;;29.88;15.07;;;;;;;-145.63;55.74;39077.06;5045131;28;20048;-63
2023/12/16 08:30:39;;;;;;;26.80;13.85;;;;;;;-145.63;55.56;39053.59;5061688;28;20151;-65
2023/12/16 08:33:05;;;;;;;28.38;14.55;;;;;;;-145.63;55.82;39071.19;5064848;28;20080;-64
2023/12/16 08:35:31;;;;;;;23.30;14.23;;;;;;;-145.63;55.89;39069.22;5057734;28;20091;-65
2023/12/16 08:37:57;;;;;;;26.80;14.15;;;;;;;-145.63;55.73;39100.50;5047512;28;20048;-64
2023/12/16 08:40:26;;;;;;;26.05;14.20;;;;;;;-145.63;55.37;39086.81;5065217;28;20088;-64
2023/12/16 08:42:52;;;;;;;24.85;13.57;;;;;;;-145.63;56.03;39079.00;5046327;28;20310;-65
2023/12/16 08:45:17;;;;;;;26.98;15.07;;;;;;;-145.63;55.93;39069.22;5058851;28;20035;-64
2023/12/16 08:47:43;;;;;;;27.13;13.52;;;;;;;-145.63;55.82;39051.63;5064636;28;20377;-65
2023/12/16 08:50:09;;;;;;;25.23;12.57;;;;;;;-145.63;55.94;39047.72;5064703;28;20333;-64
2023/12/16 08:52:38;;;;;;;24.45;12.63;;;;;;;-145.63;55.90;39053.59;5064687;28;20021;-64
2023/12/16 08:55:05;;;;;;;25.73;14.77;;;;;;;-145.63;55.06;39079.00;5044812;28;20025;-64
2023/12/16 08:57:32;;;;;;;26.77;13.57;;;;;;;-145.63;54.90;39067.28;5043570;28;20190;-64
2023/12/16 08:59:58;;;;;;;25.73;14.13;;;;;;;-145.63;55.38;39114.22;5055523;28;20063;-64
2023/12/16 09:02:24;;;;;;;25.77;13.55;;;;;;;-145.63;55.46;39094.66;5058423;28;20025;-64
2023/12/16 09:04:50;;;;;;;28.92;14.05;;;;;;;-145.63;55.87;39104.44;5049844;28;20314;-64
2023/12/16 09:07:17;;;;;;;28.25;14.23;;;;;;;-145.63;55.74;39079.00;5064200;28;20020;-63
2023/12/16 09:09:44;;;;;;;26.10;14.13;;;;;;;-145.63;55.06;39108.34;5047156;28;20025;-65
2023/12/16 09:12:10;;;;;;;22.75;14.30;;;;;;;-145.63;55.53;39063.34;5056650;28;20095;-64
2023/12/16 09:14:40;;;;;;;23.40;12.88;;;;;;;-145.63;55.71;39086.81;5056324;28;20033;-65
2023/12/16 09:17:08;;;;;;;24.30;13.27;;;;;;;-145.63;55.44;39071.19;5048002;28;20029;-64
2023/12/16 09:19:33;;;;;;;21.65;12.82;;;;;;;-145.63;54.49;39080.97;5064212;28;20028;-63
2023/12/16 09:21:59;;;;;;;23.65;13.55;;;;;;;-145.63;54.95;39106.38;5045010;28;20029;-64
2023/12/16 09:24:25;;;;;;;21.48;12.25;;;;;;;-145.63;54.40;39061.41;5073136;28;20055;-65
2023/12/16 09:26:50;;;;;;;24.38;12.18;;;;;;;-145.63;55.20;39090.75;5063694;28;20024;-64
2023/12/16 09:29:16;;;;;;;27.55;12.35;;;;;;;-145.63;54.86;39075.09;5059013;28;20040;-64
2023/12/16 09:31:43;;;;;;;21.77;13.15;;;;;;;-145.63;54.86;39059.44;5042468;28;20167;-65
2023/12/16 09:34:09;;;;;;;24.33;13.23;;;;;;;-145.63;54.45;39090.75;5063671;28;20339;-64
2023/12/16 09:36:35;;;;;;;21.85;12.25;;;;;;;-145.63;54.07;39116.16;5047945;28;20025;-65
2023/12/16 09:39:01;;;;;;;32.83;15.50;;;;;;;-145.63;53.77;39090.75;5054739;28;20024;-64
2023/12/16 09:41:28;;;;;;;22.50;13.65;;;;;;;-145.63;53.96;39094.66;5057545;28;20083;-64
2023/12/16 09:43:58;;;;;;;20.73;12.30;;;;;;;-145.63;53.90;39110.28;5045473;28;20025;-66
2023/12/16 09:46:29;;;;;;;21.23;11.68;;;;;;;-145.63;54.28;39096.59;5063925;28;20233;-66
2023/12/16 09:48:55;;;;;;;20.92;12.63;;;;;;;-145.63;54.66;39122.03;5063658;28;20270;-64
2023/12/16 09:51:22;;;;;;;20.75;11.85;;;;;;;-145.63;54.82;39100.50;5063722;28;20092;-65
2023/12/16 09:53:49;;;;;;;21.20;11.65;;;;;;;-145.63;54.84;39080.97;5054402;28;20076;-63
2023/12/16 09:56:16;;;;;;;20.95;12.30;;;;;;;-145.63;54.70;38779.81;5047455;28;20043;-63
2023/12/16 09:58:43;;;;;;;20.27;11.80;;;;;;;-145.63;54.78;39077.06;5060779;28;20229;-64
2023/12/16 10:01:13;;;;;;;19.45;11.18;;;;;;;-145.63;54.82;39043.81;5061479;28;20348;-67
2023/12/16 10:03:40;;;;;;;20.35;11.60;;;;;;;-145.63;54.44;39110.28;5062465;28;20052;-65
2023/12/16 10:06:08;;;;;;;20.50;10.98;;;;;;;-145.63;54.47;39104.44;5062635;28;20097;-65
2023/12/16 10:08:35;;;;;;;21.88;11.93;;;;;;;-145.63;54.34;39090.75;5062784;28;20028;-64
2023/12/16 10:11:02;;;;;;;22.42;11.60;;;;;;;-145.63;54.76;39071.19;5063296;28;20032;-64
2023/12/16 10:13:30;;;;;;;19.00;10.52;;;;;;;-145.63;54.46;39098.56;5063634;28;20031;-67
2023/12/16 10:15:56;;;;;;;20.30;12.35;;;;;;;-145.63;54.63;39135.72;5063204;28;20017;-65
2023/12/16 10:18:22;;;;;;;18.13;10.05;;;;;;;-145.63;54.32;39102.47;5049547;28;20056;-64
2023/12/16 10:20:48;;;;;;;19.10;10.77;;;;;;;-145.63;54.71;39129.84;5051659;28;20033;-64
2023/12/16 10:23:14;;;;;;;19.70;11.25;;;;;;;-145.63;55.05;39096.59;5067178;28;20062;-64
2023/12/16 10:25:41;;;;;;;23.42;11.75;;;;;;;-145.63;54.72;39069.22;5071664;28;20029;-64
2023/12/16 10:28:07;;;;;;;18.83;11.15;;;;;;;-145.63;54.38;39125.94;5062994;28;20113;-64
2023/12/16 10:30:33;;;;;;;17.40;9.90;;;;;;;-145.63;54.03;39139.63;5060229;28;20052;-65
2023/12/16 10:33:03;;;;;;;26.67;13.20;;;;;;;-145.63;54.43;39157.22;5063076;28;20028;-64
2023/12/16 10:35:29;;;;;;;19.42;11.10;;;;;;;-145.63;54.58;39110.28;5061313;28;20048;-63
2023/12/16 10:37:55;;;;;;;19.33;11.00;;;;;;;-145.63;55.17;39110.28;5060153;28;20032;-64
2023/12/16 10:40:23;;;;;;;17.67;9.85;;;;;;;-145.63;54.83;39149.41;5063067;28;20056;-63
2023/12/16 10:42:49;;;;;;;21.48;10.15;;;;;;;-145.63;54.20;39131.81;5044167;28;20084;-64
2023/12/16 10:45:15;;;;;;;15.65;9.70;;;;;;;-145.63;54.76;39165.06;5042608;28;20209;-63
2023/12/16 10:47:42;;;;;;;17.85;10.45;;;;;;;-145.63;54.89;39139.63;5050367;28;20029;-64
2023/12/16 10:50:09;;;;;;;13.77;8.93;;;;;;;-145.63;54.89;39133.75;5062178;28;20024;-64
2023/12/16 10:52:40;;;;;;;17.50;9.18;;;;;;;-145.63;54.23;39141.59;5079820;28;20033;-64
2023/12/16 10:55:07;;;;;;;17.27;9.73;;;;;;;-145.63;54.70;38922.56;5060097;28;20032;-64
2023/12/16 10:57:44;;;;;;;19.20;10.00;;;;;;;-145.63;54.91;39108.34;5061336;28;20084;-64
2023/12/16 11:00:16;;;;;;;14.90;9.25;;;;;;;-145.63;54.30;39165.06;5056121;28;20108;-65